createdAt,value
2022-11-20T00:01:32.490Z,9.25
2022-11-20T00:03:59.973Z,9.25
2022-11-20T00:06:29.473Z,9.26
2022-11-20T00:08:59.443Z,9.20
2022-11-20T00:11:28.649Z,9.09
2022-11-20T00:14:00.309Z,9.04
2022-11-20T00:16:31.123Z,9.01
2022-11-20T00:18:58.307Z,8.98
2022-11-20T00:21:28.007Z,8.98
2022-11-20T00:23:56.869Z,9.00
2022-11-20T00:26:26.621Z,8.99
2022-11-20T00:29:00.946Z,8.96
2022-11-20T00:31:29.637Z,8.97
2022-11-20T00:33:57.110Z,8.97
2022-11-20T00:36:27.048Z,8.96
2022-11-20T00:38:59.468Z,8.94
2022-11-20T00:41:29.580Z,8.93
2022-11-20T00:43:57.489Z,8.91
2022-11-20T00:46:28.114Z,8.89
2022-11-20T00:48:55.790Z,8.87
2022-11-20T00:51:26.477Z,8.86
2022-11-20T00:53:56.307Z,8.86
2022-11-20T00:56:23.304Z,8.88
2022-11-20T00:58:51.058Z,8.87
2022-11-20T01:01:30.388Z,8.83
2022-11-20T01:04:00.893Z,8.81
2022-11-20T01:06:37.792Z,8.79
2022-11-20T01:09:10.888Z,8.76
2022-11-20T01:11:42.012Z,8.73
2022-11-20T01:14:18.068Z,8.72
2022-11-20T01:16:49.666Z,8.69
2022-11-20T01:19:21.507Z,8.69
2022-11-20T01:21:54.564Z,8.68
2022-11-20T01:24:22.976Z,8.64
2022-11-20T01:26:52.127Z,8.63
2022-11-20T01:29:25.234Z,8.60
2022-11-20T01:31:53.745Z,8.55
2022-11-20T01:34:23.256Z,8.53
2022-11-20T01:36:51.932Z,8.50
2022-11-20T01:39:26.667Z,8.49
2022-11-20T01:42:14.579Z,8.48
2022-11-20T01:45:02.155Z,8.45
2022-11-20T01:47:39.784Z,8.43
2022-11-20T01:50:16.806Z,8.40
2022-11-20T01:52:57.242Z,8.39
2022-11-20T01:55:31.039Z,8.38
2022-11-20T01:58:00.146Z,8.35
2022-11-20T02:00:27.840Z,8.34
2022-11-20T02:03:00.189Z,8.33
2022-11-20T02:05:38.225Z,8.30
2022-11-20T02:08:07.825Z,8.26
2022-11-20T02:10:35.649Z,8.22
2022-11-20T02:13:21.935Z,8.20
2022-11-20T02:15:50.007Z,8.15
2022-11-20T02:18:20.557Z,8.11
2022-11-20T02:21:02.382Z,8.09
2022-11-20T02:23:57.897Z,8.05
2022-11-20T02:26:27.778Z,8.04
2022-11-20T02:28:56.162Z,8.02
2022-11-20T02:31:23.206Z,8.01
2022-11-20T02:33:57.477Z,8.00
2022-11-20T02:36:27.830Z,7.99
2022-11-20T02:38:55.576Z,7.97
2022-11-20T02:41:23.247Z,7.96
2022-11-20T02:43:50.223Z,7.94
2022-11-20T02:46:17.736Z,7.94
2022-11-20T02:48:44.896Z,7.92
2022-11-20T02:51:11.908Z,7.91
2022-11-20T02:53:38.896Z,7.91
2022-11-20T02:56:06.835Z,7.91
2022-11-20T02:58:34.276Z,7.90
2022-11-20T03:01:01.602Z,7.90
2022-11-20T03:03:28.626Z,7.89
2022-11-20T03:05:55.605Z,7.88
2022-11-20T03:08:22.651Z,7.84
2022-11-20T03:10:49.603Z,7.82
2022-11-20T03:13:16.710Z,7.81
2022-11-20T03:15:43.770Z,7.79
2022-11-20T03:18:10.844Z,7.78
2022-11-20T03:20:37.900Z,7.76
2022-11-20T03:23:05.254Z,7.72
2022-11-20T03:25:32.471Z,7.68
2022-11-20T03:27:59.641Z,7.66
2022-11-20T03:30:30.586Z,7.65
2022-11-20T03:32:58.214Z,7.63
2022-11-20T03:35:25.639Z,7.62
2022-11-20T03:37:52.768Z,7.60
2022-11-20T03:40:19.849Z,7.57
2022-11-20T03:42:46.826Z,7.57
2022-11-20T03:45:19.692Z,7.55
2022-11-20T03:47:47.456Z,7.56
2022-11-20T03:50:15.378Z,7.56
2022-11-20T03:52:43.100Z,7.55
2022-11-20T03:55:10.638Z,7.54
2022-11-20T03:57:37.691Z,7.53
2022-11-20T04:00:06.888Z,7.53
2022-11-20T04:02:34.010Z,7.50
2022-11-20T04:05:01.159Z,7.52
2022-11-20T04:07:28.467Z,7.52
2022-11-20T04:09:55.487Z,7.51
2022-11-20T04:12:22.438Z,7.49
2022-11-20T04:14:49.607Z,7.47
2022-11-20T04:17:16.811Z,7.46
2022-11-20T04:19:43.912Z,7.48
2022-11-20T04:22:12.664Z,7.46
2022-11-20T04:24:39.750Z,7.44
2022-11-20T04:27:06.698Z,7.42
2022-11-20T04:29:33.742Z,7.40
2022-11-20T04:32:00.787Z,7.46
2022-11-20T04:34:27.884Z,7.33
2022-11-20T04:36:54.867Z,7.32
2022-11-20T04:39:22.175Z,7.27
2022-11-20T04:41:49.330Z,7.24
2022-11-20T04:44:16.426Z,7.20
2022-11-20T04:46:43.961Z,7.13
2022-11-20T04:49:12.755Z,7.11
2022-11-20T04:51:41.000Z,7.07
2022-11-20T04:54:08.165Z,7.05
2022-11-20T04:56:35.186Z,7.05
2022-11-20T04:59:03.619Z,7.04
2022-11-20T05:01:31.089Z,7.01
2022-11-20T05:03:58.232Z,6.98
2022-11-20T05:06:25.262Z,6.99
2022-11-20T05:08:52.347Z,6.97
2022-11-20T05:11:22.553Z,6.97
2022-11-20T05:13:51.576Z,6.97
2022-11-20T05:16:23.089Z,6.95
2022-11-20T05:18:55.237Z,6.95
2022-11-20T05:21:22.933Z,6.97
2022-11-20T05:23:50.049Z,6.98
2022-11-20T05:26:22.413Z,7.00
2022-11-20T05:28:50.897Z,7.01
2022-11-20T05:31:27.147Z,7.00
2022-11-20T05:33:57.349Z,7.01
2022-11-20T05:36:25.194Z,6.99
2022-11-20T05:38:56.665Z,7.00
2022-11-20T05:41:23.997Z,7.00
2022-11-20T05:43:51.881Z,7.02
2022-11-20T05:46:27.790Z,7.03
2022-11-20T05:48:57.220Z,6.98
2022-11-20T05:51:25.004Z,6.95
2022-11-20T05:53:52.014Z,6.94
2022-11-20T05:56:22.158Z,6.93
2022-11-20T05:58:50.401Z,6.93
2022-11-20T06:01:26.764Z,6.92
2022-11-20T06:03:56.191Z,6.89
2022-11-20T06:06:23.903Z,6.88
2022-11-20T06:08:51.216Z,6.90
2022-11-20T06:11:19.136Z,6.91
2022-11-20T06:13:47.308Z,6.91
2022-11-20T06:16:17.868Z,6.91
2022-11-20T06:18:45.222Z,6.91
2022-11-20T06:21:13.970Z,6.88
2022-11-20T06:23:41.953Z,6.87
2022-11-20T06:26:13.302Z,6.87
2022-11-20T06:28:40.496Z,6.88
2022-11-20T06:31:13.621Z,6.88
2022-11-20T06:33:41.765Z,6.87
2022-11-20T06:36:11.170Z,6.86
2022-11-20T06:38:39.517Z,6.88
2022-11-20T06:41:18.490Z,6.87
2022-11-20T06:43:45.793Z,6.87
2022-11-20T06:46:18.681Z,6.86
2022-11-20T06:48:48.492Z,6.87
2022-11-20T06:51:15.934Z,6.85
2022-11-20T06:53:43.289Z,6.87
2022-11-20T06:56:10.601Z,6.86
2022-11-20T06:58:38.472Z,6.87
2022-11-20T07:01:10.428Z,6.87
2022-11-20T07:03:38.241Z,6.86
2022-11-20T07:06:06.824Z,6.86
2022-11-20T07:08:35.099Z,6.86
2022-11-20T07:11:07.121Z,6.85
2022-11-20T07:13:34.492Z,6.86
2022-11-20T07:16:08.176Z,6.86
2022-11-20T07:18:35.661Z,6.87
2022-11-20T07:21:06.218Z,6.87
2022-11-20T07:23:33.317Z,6.86
2022-11-20T07:26:08.557Z,6.87
2022-11-20T07:28:36.758Z,6.89
2022-11-20T07:31:06.093Z,6.87
2022-11-20T07:33:33.589Z,6.88
2022-11-20T07:36:01.372Z,6.86
2022-11-20T07:38:28.615Z,6.86
2022-11-20T07:40:58.977Z,6.88
2022-11-20T07:43:26.421Z,6.90
2022-11-20T07:46:05.462Z,6.93
2022-11-20T07:48:33.601Z,6.94
2022-11-20T07:51:00.851Z,6.95
2022-11-20T07:53:29.822Z,6.96
2022-11-20T07:56:02.102Z,6.97
2022-11-20T07:58:34.172Z,6.99
2022-11-20T08:01:09.820Z,7.01
2022-11-20T08:03:38.804Z,7.05
2022-11-20T08:06:06.828Z,7.07
2022-11-20T08:08:36.144Z,7.05
2022-11-20T08:11:25.039Z,7.07
2022-11-20T08:14:10.559Z,7.10
2022-11-20T08:16:37.746Z,7.13
2022-11-20T08:19:05.253Z,7.18
2022-11-20T08:21:37.780Z,7.23
2022-11-20T08:24:06.417Z,7.26
2022-11-20T08:26:38.256Z,7.29
2022-11-20T08:29:06.467Z,7.33
2022-11-20T08:31:34.278Z,7.36
2022-11-20T08:34:04.933Z,7.38
2022-11-20T08:36:36.096Z,7.43
2022-11-20T08:39:04.312Z,7.46
2022-11-20T08:41:34.467Z,7.52
2022-11-20T08:44:09.226Z,7.55
2022-11-20T08:46:44.843Z,7.50
2022-11-20T08:49:14.961Z,7.47
2022-11-20T08:51:43.138Z,7.49
2022-11-20T08:54:10.491Z,7.52
2022-11-20T08:56:38.039Z,7.55
2022-11-20T08:59:43.473Z,7.50
2022-11-20T09:01:52.728Z,7.54
2022-11-20T09:04:22.649Z,7.55
2022-11-20T09:06:52.192Z,7.61
2022-11-20T09:09:20.182Z,7.66
2022-11-20T09:11:47.498Z,7.71
2022-11-20T09:14:14.596Z,7.76
2022-11-20T09:16:42.217Z,7.82
2022-11-20T09:21:59.718Z,7.93
2022-11-20T09:24:29.036Z,7.99
2022-11-20T09:26:56.325Z,8.06
2022-11-20T09:29:23.652Z,8.13
2022-11-20T09:31:51.529Z,8.18
2022-11-20T09:34:18.852Z,8.23
2022-11-20T09:36:46.194Z,8.27
2022-11-20T09:39:13.594Z,8.33
2022-11-20T09:41:41.298Z,8.38
2022-11-20T09:44:37.301Z,8.39
2022-11-20T09:47:18.069Z,8.45
2022-11-20T09:50:14.562Z,8.50
2022-11-20T09:53:10.062Z,8.51
2022-11-20T09:55:38.362Z,8.59
2022-11-20T09:58:26.789Z,8.68
2022-11-20T10:00:57.558Z,8.74
2022-11-20T10:04:06.353Z,8.69
2022-11-20T10:06:40.828Z,8.76
2022-11-20T10:09:25.353Z,8.87
2022-11-20T10:12:17.032Z,8.91
2022-11-20T10:15:05.965Z,9.02
2022-11-20T10:18:03.589Z,9.08
2022-11-20T10:21:14.384Z,9.17
2022-11-20T10:24:04.297Z,9.13
2022-11-20T10:26:49.436Z,9.25
2022-11-20T10:29:50.671Z,9.33
2022-11-20T10:32:21.770Z,9.43
2022-11-20T10:35:06.834Z,9.54
2022-11-20T10:37:36.990Z,9.59
2022-11-20T10:40:21.418Z,9.65
2022-11-20T10:43:01.603Z,9.64
2022-11-20T10:46:06.725Z,9.75
2022-11-20T10:48:35.149Z,9.77
2022-11-20T10:51:49.598Z,9.89
2022-11-20T10:54:46.902Z,9.95
2022-11-20T10:57:48.794Z,10.04
2022-11-20T11:00:18.836Z,10.13
2022-11-20T11:02:52.588Z,10.19
2022-11-20T11:05:42.540Z,10.26
2022-11-20T11:08:19.590Z,10.32
2022-11-20T11:10:59.047Z,10.35
2022-11-20T11:13:31.812Z,10.43
2022-11-20T11:15:59.467Z,10.49
2022-11-20T11:18:33.253Z,10.56
2022-11-20T11:21:03.087Z,10.62
2022-11-20T11:23:39.568Z,10.66
2022-11-20T11:26:22.269Z,10.73
2022-11-20T11:29:04.492Z,10.85
2022-11-20T11:31:36.534Z,10.90
2022-11-20T11:34:15.542Z,10.91
2022-11-20T11:36:53.625Z,10.89
2022-11-20T11:39:22.532Z,10.96
2022-11-20T11:41:50.244Z,11.03
2022-11-20T11:44:37.708Z,11.05
2022-11-20T11:47:11.267Z,11.05
2022-11-20T11:49:38.983Z,10.99
2022-11-20T11:52:17.292Z,11.04
2022-11-20T11:54:53.355Z,11.11
2022-11-20T11:57:51.362Z,11.20
2022-11-20T12:00:22.406Z,11.31
2022-11-20T12:03:45.048Z,11.37
2022-11-20T12:06:16.599Z,11.45
2022-11-20T12:09:00.631Z,11.52
2022-11-20T12:12:00.565Z,11.58
2022-11-20T12:14:39.789Z,11.63
2022-11-20T12:17:12.773Z,11.70
2022-11-20T12:19:40.441Z,11.68
2022-11-20T12:22:35.723Z,11.76
2022-11-20T12:25:31.805Z,11.81
2022-11-20T12:29:04.683Z,11.88
2022-11-20T12:32:09.152Z,11.84
2022-11-20T12:35:08.673Z,11.88
2022-11-20T12:38:05.580Z,11.95
2022-11-20T12:40:39.846Z,12.01
2022-11-20T12:43:32.221Z,12.05
2022-11-20T12:46:26.540Z,12.01
2022-11-20T12:49:51.804Z,12.00
2022-11-20T12:52:48.807Z,12.00
2022-11-20T12:55:38.562Z,12.14
2022-11-20T12:58:39.324Z,12.16
2022-11-20T13:01:42.089Z,12.16
2022-11-20T13:04:42.169Z,12.21
2022-11-20T13:07:14.515Z,12.29
2022-11-20T13:09:48.581Z,12.35
2022-11-20T13:12:31.372Z,12.43
2022-11-20T13:15:28.157Z,12.46
2022-11-20T13:18:01.689Z,12.50
2022-11-20T13:20:31.421Z,12.55
2022-11-20T13:22:59.850Z,12.63
2022-11-20T13:25:45.180Z,12.64
2022-11-20T13:28:12.294Z,12.67
2022-11-20T13:30:55.012Z,12.64
2022-11-20T13:33:39.348Z,12.69
2022-11-20T13:36:27.097Z,12.68
2022-11-20T13:38:56.741Z,12.66
2022-11-20T13:41:38.936Z,12.64
2022-11-20T13:44:31.141Z,12.62
2022-11-20T13:46:58.344Z,12.64
2022-11-20T13:49:43.842Z,12.67
2022-11-20T13:52:41.541Z,12.72
2022-11-20T13:55:26.161Z,12.77
2022-11-20T13:58:12.713Z,12.82
2022-11-20T14:00:58.874Z,12.86
2022-11-20T14:03:58.961Z,12.86
2022-11-20T14:06:29.661Z,12.85
2022-11-20T14:08:57.654Z,12.84
2022-11-20T14:11:30.631Z,12.84
2022-11-20T14:14:22.199Z,12.88
2022-11-20T14:16:51.426Z,12.88
2022-11-20T14:19:21.485Z,12.91
2022-11-20T14:22:08.914Z,12.90
2022-11-20T14:24:36.023Z,12.87
2022-11-20T14:27:03.481Z,12.85
2022-11-20T14:29:36.449Z,12.85
2022-11-20T14:32:05.007Z,12.87
2022-11-20T14:34:39.554Z,12.77
2022-11-20T14:37:16.881Z,12.74
2022-11-20T14:39:51.909Z,12.68
2022-11-20T14:42:23.259Z,12.66
2022-11-20T14:44:53.013Z,12.60
2022-11-20T14:47:27.210Z,12.56
2022-11-20T14:49:56.262Z,12.52
2022-11-20T14:52:28.943Z,12.45
2022-11-20T14:55:02.133Z,12.43
2022-11-20T14:57:37.642Z,12.38
2022-11-20T15:00:14.236Z,12.34
2022-11-20T15:02:49.922Z,12.31
2022-11-20T15:05:20.024Z,12.26
2022-11-20T15:08:06.286Z,12.23
2022-11-20T15:10:33.594Z,12.18
2022-11-20T15:13:09.777Z,12.14
2022-11-20T15:16:00.357Z,12.12
2022-11-20T15:18:42.565Z,12.09
2022-11-20T15:21:19.517Z,12.05
2022-11-20T15:23:48.655Z,12.01
2022-11-20T15:26:25.899Z,11.98
2022-11-20T15:28:54.547Z,11.92
2022-11-20T15:31:26.181Z,11.89
2022-11-20T15:33:56.159Z,11.83
2022-11-20T15:36:25.186Z,11.77
2022-11-20T15:38:52.393Z,11.70
2022-11-20T15:41:19.432Z,11.66
2022-11-20T15:43:46.773Z,11.61
2022-11-20T15:46:23.952Z,11.54
2022-11-20T15:48:59.026Z,11.48
2022-11-20T15:51:36.173Z,11.42
2022-11-20T15:54:16.121Z,11.36
2022-11-20T15:56:43.168Z,11.31
2022-11-20T15:59:10.737Z,11.25
2022-11-20T16:01:38.047Z,11.18
2022-11-20T16:04:11.299Z,11.10
2022-11-20T16:06:38.735Z,11.04
2022-11-20T16:09:06.107Z,11.01
2022-11-20T16:11:33.458Z,10.97
2022-11-20T16:14:19.348Z,10.93
2022-11-20T16:16:46.712Z,10.89
2022-11-20T16:19:15.281Z,10.87
2022-11-20T16:21:43.259Z,10.83
2022-11-20T16:24:14.797Z,10.79
2022-11-20T16:26:42.774Z,10.75
2022-11-20T16:29:11.088Z,10.71
2022-11-20T16:31:39.204Z,10.68
2022-11-20T16:34:12.216Z,10.63
2022-11-20T16:36:45.931Z,10.58
2022-11-20T16:39:13.503Z,10.51
2022-11-20T16:41:40.612Z,10.45
2022-11-20T16:44:11.053Z,10.43
2022-11-20T16:46:40.919Z,10.37
2022-11-20T16:49:14.002Z,10.33
2022-11-20T16:51:41.832Z,10.30
2022-11-20T16:54:10.371Z,10.27
2022-11-20T16:56:37.983Z,10.23
2022-11-20T16:59:08.450Z,10.20
2022-11-20T17:01:38.713Z,10.18
2022-11-20T17:04:07.310Z,10.15
2022-11-20T17:06:44.224Z,10.11
2022-11-20T17:09:11.703Z,10.07
2022-11-20T17:11:38.999Z,10.04
2022-11-20T17:14:09.842Z,10.01
2022-11-20T17:16:38.650Z,9.99
2022-11-20T17:19:05.992Z,9.97
2022-11-20T17:21:38.241Z,9.92
2022-11-20T17:24:08.627Z,9.87
2022-11-20T17:26:38.466Z,9.82
2022-11-20T17:29:13.039Z,9.80
2022-11-20T17:31:40.439Z,9.77
2022-11-20T17:34:11.599Z,9.76
2022-11-20T17:36:45.455Z,9.73
2022-11-20T17:39:15.511Z,9.71
2022-11-20T17:41:42.913Z,9.70
2022-11-20T17:44:11.839Z,9.66
2022-11-20T17:46:39.146Z,9.62
2022-11-20T17:49:07.814Z,9.58
2022-11-20T17:51:35.339Z,9.54
2022-11-20T17:54:07.664Z,9.50
2022-11-20T17:56:54.429Z,9.48
2022-11-20T17:59:21.837Z,9.44
2022-11-20T18:01:49.016Z,9.42
2022-11-20T18:04:16.948Z,9.41
2022-11-20T18:06:44.123Z,9.39
2022-11-20T18:09:11.579Z,9.36
2022-11-20T18:11:42.027Z,9.32
2022-11-20T18:14:32.382Z,9.30
2022-11-20T18:17:05.507Z,9.29
2022-11-20T18:19:47.739Z,9.27
2022-11-20T18:22:22.936Z,9.25
2022-11-20T18:24:50.101Z,9.24
2022-11-20T18:27:20.728Z,9.22
2022-11-20T18:29:51.786Z,9.18
2022-11-20T18:32:21.603Z,9.16
2022-11-20T18:34:49.139Z,9.13
2022-11-20T18:37:17.293Z,9.12
2022-11-20T18:39:44.496Z,9.11
2022-11-20T18:42:34.962Z,9.08
2022-11-20T18:45:07.101Z,9.06
2022-11-20T18:47:40.362Z,9.02
2022-11-20T18:50:09.808Z,9.01
2022-11-20T18:52:44.726Z,8.99
2022-11-20T18:55:12.981Z,8.97
2022-11-20T18:57:40.267Z,8.93
2022-11-20T19:00:09.913Z,8.89
2022-11-20T19:02:42.068Z,8.88
2022-11-20T19:05:12.488Z,8.84
2022-11-20T19:07:40.157Z,8.83
2022-11-20T19:10:09.223Z,8.81
2022-11-20T19:12:36.319Z,8.77
2022-11-20T19:15:11.532Z,8.73
2022-11-20T19:17:38.763Z,8.71
2022-11-20T19:20:08.312Z,8.69
2022-11-20T19:22:35.391Z,8.68
2022-11-20T19:25:02.501Z,8.66
2022-11-20T19:27:29.622Z,8.64
2022-11-20T19:30:03.932Z,8.63
2022-11-20T19:32:31.291Z,8.59
2022-11-20T19:34:58.265Z,8.55
2022-11-20T19:37:25.396Z,8.52
2022-11-20T19:39:52.475Z,8.50
2022-11-20T19:42:19.552Z,8.50
2022-11-20T19:44:46.945Z,8.51
2022-11-20T19:47:14.965Z,8.48
2022-11-20T19:49:42.257Z,8.46
2022-11-20T19:52:09.534Z,8.43
2022-11-20T19:54:37.982Z,8.41
2022-11-20T19:57:05.355Z,8.41
2022-11-20T19:59:32.405Z,8.40
2022-11-20T20:01:59.653Z,8.40
2022-11-20T20:04:27.485Z,8.41
2022-11-20T20:06:54.674Z,8.38
2022-11-20T20:09:23.826Z,8.37
2022-11-20T20:11:51.103Z,8.37
2022-11-20T20:14:18.521Z,8.34
2022-11-20T20:16:45.715Z,8.28
2022-11-20T20:19:15.319Z,8.24
2022-11-20T20:21:43.107Z,8.20
2022-11-20T20:24:12.076Z,8.19
2022-11-20T20:26:39.320Z,8.16
2022-11-20T20:29:06.390Z,8.10
2022-11-20T20:31:34.458Z,8.08
2022-11-20T20:34:03.422Z,8.06
2022-11-20T20:36:30.731Z,8.04
2022-11-20T20:39:05.141Z,8.01
2022-11-20T20:41:32.706Z,7.97
2022-11-20T20:44:18.245Z,7.95
2022-11-20T20:46:45.326Z,7.93
2022-11-20T20:49:13.309Z,7.88
2022-11-20T20:51:40.435Z,7.87
2022-11-20T20:54:07.498Z,7.83
2022-11-20T20:56:34.623Z,7.80
2022-11-20T20:59:02.454Z,7.78
2022-11-20T21:01:29.845Z,7.76
2022-11-20T21:03:58.078Z,7.78
2022-11-20T21:06:25.935Z,7.78
2022-11-20T21:08:53.751Z,7.78
2022-11-20T21:11:21.202Z,7.77
2022-11-20T21:13:49.698Z,7.76
2022-11-20T21:16:20.768Z,7.75
2022-11-20T21:18:48.304Z,7.75
2022-11-20T21:21:35.280Z,7.75
2022-11-20T21:24:03.193Z,7.72
2022-11-20T21:26:30.307Z,7.71
2022-11-20T21:28:57.885Z,7.70
2022-11-20T21:31:27.196Z,7.66
2022-11-20T21:33:56.662Z,7.63
2022-11-20T21:36:27.895Z,7.60
2022-11-20T21:38:57.010Z,7.58
2022-11-20T21:41:26.584Z,7.58
2022-11-20T21:44:29.606Z,7.61
2022-11-20T21:46:46.541Z,7.56
2022-11-20T21:49:15.348Z,7.54
2022-11-20T21:51:42.570Z,7.51
2022-11-20T21:54:10.669Z,7.46
2022-11-20T21:56:37.797Z,7.43
2022-11-20T21:59:04.904Z,7.41
2022-11-20T22:01:32.240Z,7.38
2022-11-20T22:04:02.106Z,7.33
2022-11-20T22:06:34.515Z,7.33
2022-11-20T22:09:02.884Z,7.32
2022-11-20T22:11:30.660Z,7.30
2022-11-20T22:14:16.707Z,7.28
2022-11-20T22:16:43.961Z,7.30
2022-11-20T22:19:11.452Z,7.31
2022-11-20T22:21:40.841Z,7.32
2022-11-20T22:24:12.383Z,7.32
2022-11-20T22:26:40.725Z,7.35
2022-11-20T22:29:13.802Z,7.37
2022-11-20T22:31:41.457Z,7.39
2022-11-20T22:34:13.966Z,7.42
2022-11-20T22:36:41.910Z,7.43
2022-11-20T22:39:09.792Z,7.45
2022-11-20T22:41:36.895Z,7.47
2022-11-20T22:44:08.811Z,7.47
2022-11-20T22:46:37.972Z,7.49
2022-11-20T22:49:09.383Z,7.46
2022-11-20T22:51:41.570Z,7.43
2022-11-20T22:54:13.714Z,7.43
2022-11-20T22:56:41.316Z,7.44
2022-11-20T22:59:10.399Z,7.46
2022-11-20T23:01:38.136Z,7.48
2022-11-20T23:04:10.265Z,7.50
2022-11-20T23:06:37.466Z,7.53
2022-11-20T23:09:09.031Z,7.55
2022-11-20T23:11:37.080Z,7.57
2022-11-20T23:14:13.455Z,7.59
2022-11-20T23:16:40.726Z,7.60
2022-11-20T23:19:12.213Z,7.60
2022-11-20T23:21:41.334Z,7.59
2022-11-20T23:24:11.133Z,7.59
2022-11-20T23:26:40.917Z,7.59
2022-11-20T23:29:09.999Z,7.58
2022-11-20T23:31:37.323Z,7.57
2022-11-20T23:34:05.267Z,7.57
2022-11-20T23:36:32.613Z,7.55
2022-11-20T23:38:59.717Z,7.54
2022-11-20T23:41:26.808Z,7.52
2022-11-20T23:43:54.106Z,7.47
2022-11-20T23:46:21.116Z,7.41
2022-11-20T23:48:48.088Z,7.37
2022-11-20T23:51:15.221Z,7.33
2022-11-20T23:53:42.596Z,7.30
2022-11-20T23:56:14.528Z,7.28
2022-11-20T23:58:42.393Z,7.24
